Time;durP1;ratioP1;P1;durP2;ratioP2;P2;SDS_P1;SDS_P2;PMS_P1;PMS_P2;Temp;Humidity;BMP_temperature;BMP_pressure;BME280_temperature;BME280_humidity;BME280_pressure;Samples;Min_cycle;Max_cycle;Signal;HPM_P1;HPM_P2
2023/12/19 00:00:59;;;;;;;14.40;9.30;;;17.50;65.60;;;;;;5033321;28;20460;-73
2023/12/19 00:03:27;;;;;;;18.50;10.77;;;17.40;65.40;;;;;;5033467;28;20459;-73
2023/12/19 00:05:55;;;;;;;16.07;9.80;;;17.40;65.50;;;;;;5032686;28;20459;-73
2023/12/19 00:08:28;;;;;;;16.03;10.57;;;17.40;65.40;;;;;;5032918;28;20507;-73
2023/12/19 00:11:03;;;;;;;17.10;10.50;;;17.40;65.30;;;;;;5033425;28;20439;-73
2023/12/19 00:13:32;;;;;;;14.83;10.53;;;17.40;65.60;;;;;;5032943;28;20451;-74
2023/12/19 00:16:00;;;;;;;15.33;10.37;;;17.40;65.60;;;;;;5032800;28;20521;-73
2023/12/19 00:18:30;;;;;;;19.17;10.87;;;17.40;65.60;;;;;;5032203;28;20551;-74
2023/12/19 00:20:58;;;;;;;15.53;10.80;;;17.40;65.30;;;;;;5028114;28;20437;-73
2023/12/19 00:23:30;;;;;;;15.70;10.40;;;17.40;65.60;;;;;;5032595;28;20432;-74
2023/12/19 00:25:59;;;;;;;17.20;10.70;;;17.40;65.60;;;;;;5032204;28;20475;-74
2023/12/19 00:28:28;;;;;;;17.57;10.90;;;17.40;65.50;;;;;;5032658;28;20489;-74
2023/12/19 00:30:56;;;;;;;17.97;10.80;;;17.40;65.70;;;;;;5033258;28;20497;-74
2023/12/19 00:33:24;;;;;;;18.30;10.40;;;17.40;65.70;;;;;;5032714;28;20427;-74
2023/12/19 00:35:52;;;;;;;19.03;11.40;;;17.40;65.60;;;;;;5037145;28;20467;-73
2023/12/19 00:38:20;;;;;;;17.27;10.60;;;17.30;65.30;;;;;;5042874;28;20478;-73
2023/12/19 00:40:48;;;;;;;15.33;10.67;;;17.30;65.70;;;;;;5042718;28;20435;-74
2023/12/19 00:43:17;;;;;;;13.47;10.27;;;17.30;65.40;;;;;;5039783;28;20470;-74
2023/12/19 00:45:46;;;;;;;17.10;10.90;;;17.40;65.40;;;;;;5038148;28;20502;-73
2023/12/19 00:48:15;;;;;;;14.93;10.87;;;17.40;65.30;;;;;;5036105;28;20440;-74
2023/12/19 00:50:43;;;;;;;18.97;11.13;;;17.40;65.60;;;;;;5033253;28;20443;-74
2023/12/19 00:53:11;;;;;;;13.10;9.97;;;17.40;65.40;;;;;;5033674;28;20518;-74
2023/12/19 00:55:39;;;;;;;13.63;10.53;;;17.40;65.40;;;;;;5032672;28;20534;-73
2023/12/19 00:58:07;;;;;;;15.63;10.37;;;17.30;65.60;;;;;;5032603;28;20499;-73
2023/12/19 01:00:36;;;;;;;20.10;11.77;;;17.40;65.60;;;;;;5032394;28;20531;-73
2023/12/19 01:03:04;;;;;;;15.77;10.50;;;17.30;65.40;;;;;;5032728;28;20506;-73
2023/12/19 01:05:55;;;;;;;15.20;10.37;;;17.30;65.40;;;;;;5025439;28;20511;-73
2023/12/19 01:08:29;;;;;;;18.40;10.40;;;17.30;65.50;;;;;;5023587;28;20447;-73
2023/12/19 01:10:57;;;;;;;14.77;10.73;;;17.30;65.50;;;;;;5021614;28;20472;-73
2023/12/19 01:13:26;;;;;;;13.33;10.10;;;17.30;65.60;;;;;;5023262;28;20443;-73
2023/12/19 01:15:56;;;;;;;14.50;9.83;;;17.30;65.50;;;;;;5027907;28;20558;-73
2023/12/19 01:18:23;;;;;;;17.40;9.83;;;17.30;65.40;;;;;;5023073;28;20476;-73
2023/12/19 01:20:52;;;;;;;15.77;10.57;;;17.30;65.60;;;;;;5020898;28;20447;-75
2023/12/19 01:23:21;;;;;;;14.50;10.23;;;17.30;65.40;;;;;;5023918;28;20447;-74
2023/12/19 01:25:48;;;;;;;14.10;10.17;;;17.30;65.50;;;;;;5031387;28;20470;-74
2023/12/19 01:28:16;;;;;;;14.87;10.10;;;17.30;65.50;;;;;;5023965;28;20468;-74
2023/12/19 01:30:44;;;;;;;14.47;10.50;;;17.30;65.50;;;;;;5041519;28;20443;-75
2023/12/19 01:33:14;;;;;;;16.70;9.43;;;17.30;65.30;;;;;;5035892;28;20474;-74
2023/12/19 01:35:42;;;;;;;12.33;9.20;;;17.20;65.10;;;;;;5051844;28;20474;-75
2023/12/19 01:38:10;;;;;;;14.47;10.00;;;17.20;65.40;;;;;;5025159;28;20491;-74
2023/12/19 01:40:38;;;;;;;14.37;9.47;;;17.20;65.30;;;;;;5026588;28;20454;-73
2023/12/19 01:43:15;;;;;;;13.37;9.30;;;17.20;65.20;;;;;;5030713;28;20435;-74
2023/12/19 01:45:43;;;;;;;11.90;8.90;;;17.20;65.30;;;;;;5014835;28;20513;-74
2023/12/19 01:48:11;;;;;;;15.93;9.10;;;17.20;65.20;;;;;;5029488;28;20440;-73
2023/12/19 01:50:41;;;;;;;13.07;9.80;;;17.20;65.10;;;;;;5031082;28;20498;-74
2023/12/19 01:53:09;;;;;;;13.40;9.47;;;17.20;65.20;;;;;;5031321;28;20535;-74
2023/12/19 01:55:37;;;;;;;14.07;9.67;;;17.20;65.20;;;;;;5031613;28;20527;-73
2023/12/19 01:58:06;;;;;;;12.67;9.20;;;17.20;65.10;;;;;;5030800;28;20493;-74
2023/12/19 02:00:34;;;;;;;11.53;8.50;;;17.20;65.20;;;;;;5031125;28;20443;-75
2023/12/19 02:03:02;;;;;;;12.33;9.13;;;17.20;65.30;;;;;;5031261;28;20452;-75
2023/12/19 02:05:30;;;;;;;11.10;8.40;;;17.20;65.10;;;;;;5031167;28;20459;-76
2023/12/19 02:08:00;;;;;;;10.60;8.43;;;17.20;65.20;;;;;;5029914;28;20443;-76
2023/12/19 02:10:28;;;;;;;12.73;8.63;;;17.20;65.50;;;;;;5031053;28;20497;-76
2023/12/19 02:12:55;;;;;;;11.70;8.43;;;17.20;65.30;;;;;;5031237;28;20529;-75
2023/12/19 02:15:24;;;;;;;9.47;8.47;;;17.20;65.20;;;;;;5030605;28;20455;-75
2023/12/19 02:17:51;;;;;;;11.70;8.73;;;17.10;65.40;;;;;;5030750;28;20443;-74
2023/12/19 02:20:20;;;;;;;8.40;7.17;;;17.20;65.30;;;;;;5030664;28;20561;-75
2023/12/19 02:22:51;;;;;;;9.83;7.80;;;17.20;65.30;;;;;;5026799;28;20558;-76
2023/12/19 02:25:19;;;;;;;10.63;8.10;;;17.20;65.10;;;;;;5030886;28;20545;-74
2023/12/19 02:27:47;;;;;;;11.80;9.10;;;17.10;65.50;;;;;;5030585;28;20450;-75
2023/12/19 02:30:16;;;;;;;9.83;7.80;;;17.20;65.30;;;;;;5030644;28;20435;-75
2023/12/19 02:32:45;;;;;;;10.37;7.87;;;17.10;65.30;;;;;;5030965;28;20443;-75
2023/12/19 02:35:14;;;;;;;12.40;8.27;;;17.10;65.30;;;;;;4995343;28;1018514;-75
2023/12/19 02:37:41;;;;;;;10.03;7.50;;;17.20;65.30;;;;;;5030416;28;20831;-75
2023/12/19 02:40:12;;;;;;;9.90;8.23;;;17.20;65.30;;;;;;5031153;28;20522;-75
2023/12/19 02:42:41;;;;;;;8.43;7.03;;;17.20;65.30;;;;;;5030963;28;20438;-75
2023/12/19 02:45:10;;;;;;;9.97;7.07;;;17.20;65.20;;;;;;5030958;28;20439;-75
2023/12/19 02:47:38;;;;;;;9.40;7.17;;;17.20;65.40;;;;;;5030746;28;20444;-75
2023/12/19 02:50:07;;;;;;;9.60;7.50;;;17.20;65.30;;;;;;5031000;28;20441;-75
2023/12/19 02:52:35;;;;;;;9.90;7.10;;;17.20;65.00;;;;;;5031160;28;20435;-75
2023/12/19 02:55:04;;;;;;;9.50;7.17;;;17.10;65.40;;;;;;5031512;28;20538;-75
2023/12/19 02:57:33;;;;;;;8.20;7.40;;;17.10;65.20;;;;;;5030828;28;20440;-75
2023/12/19 03:00:01;;;;;;;9.73;7.50;;;17.20;65.20;;;;;;5031026;28;20471;-75
2023/12/19 03:02:28;;;;;;;11.20;7.60;;;17.20;65.30;;;;;;5031425;28;20436;-75
2023/12/19 03:04:56;;;;;;;9.30;7.03;;;17.20;65.90;;;;;;5031275;28;20467;-74
2023/12/19 03:07:24;;;;;;;8.17;6.80;;;17.20;65.50;;;;;;5030910;28;20443;-74
2023/12/19 03:09:52;;;;;;;8.20;6.70;;;17.10;65.10;;;;;;5030871;28;20542;-74
2023/12/19 03:12:20;;;;;;;11.13;7.13;;;17.10;65.30;;;;;;5031285;28;20447;-75
2023/12/19 03:14:50;;;;;;;8.70;6.80;;;17.10;65.20;;;;;;5031146;28;20431;-74
2023/12/19 03:17:18;;;;;;;8.70;7.13;;;17.10;65.20;;;;;;5031010;28;20553;-74
2023/12/19 03:19:46;;;;;;;7.60;6.80;;;17.10;65.10;;;;;;5034655;28;20471;-74
2023/12/19 03:22:14;;;;;;;10.50;7.43;;;17.10;65.50;;;;;;5034994;28;20441;-74
2023/12/19 03:24:42;;;;;;;8.53;7.20;;;17.10;65.10;;;;;;5034742;28;20451;-75
2023/12/19 03:27:10;;;;;;;8.70;6.60;;;17.10;65.30;;;;;;5034200;28;20459;-74
2023/12/19 03:29:38;;;;;;;7.93;6.77;;;17.10;65.50;;;;;;5034697;28;20533;-74
2023/12/19 03:32:08;;;;;;;8.83;7.10;;;17.10;65.00;;;;;;5034563;28;20478;-74
2023/12/19 03:34:37;;;;;;;9.13;7.20;;;17.10;65.10;;;;;;5034574;28;20475;-74
2023/12/19 03:37:05;;;;;;;6.83;6.13;;;17.10;65.10;;;;;;5033962;28;20498;-74
2023/12/19 03:39:33;;;;;;;9.67;6.60;;;17.10;65.20;;;;;;5034221;28;20482;-74
2023/12/19 03:42:01;;;;;;;9.27;7.00;;;17.10;65.30;;;;;;5033882;28;20529;-75
2023/12/19 03:44:41;;;;;;;8.00;6.20;;;17.10;65.20;;;;;;5034509;28;20423;-74
2023/12/19 03:47:12;;;;;;;7.13;6.00;;;17.10;65.10;;;;;;5038099;28;20469;-74
2023/12/19 03:49:40;;;;;;;7.40;6.53;;;17.10;65.20;;;;;;5038976;28;20409;-75
2023/12/19 03:52:08;;;;;;;8.33;6.73;;;17.10;65.30;;;;;;5037921;28;20470;-74
2023/12/19 03:54:37;;;;;;;8.00;6.50;;;17.10;65.00;;;;;;5038065;28;20440;-75
2023/12/19 03:57:05;;;;;;;9.13;6.60;;;17.10;65.10;;;;;;5035076;28;20546;-76
2023/12/19 03:59:33;;;;;;;9.10;6.50;;;17.00;65.00;;;;;;5033865;28;20503;-74
2023/12/19 04:02:01;;;;;;;7.57;6.47;;;17.00;64.90;;;;;;5032529;28;20497;-75
2023/12/19 04:04:30;;;;;;;7.83;6.03;;;17.00;65.10;;;;;;5033947;28;20467;-75
2023/12/19 04:06:59;;;;;;;9.60;6.83;;;17.00;65.10;;;;;;5023536;28;20474;-75
2023/12/19 04:09:27;;;;;;;10.20;7.13;;;17.00;65.20;;;;;;5026084;28;20454;-75
2023/12/19 04:11:55;;;;;;;6.03;5.40;;;17.00;65.30;;;;;;5033868;28;20507;-75
2023/12/19 04:14:24;;;;;;;7.10;6.23;;;17.00;65.30;;;;;;5033885;28;20518;-75
2023/12/19 04:16:52;;;;;;;7.87;5.43;;;17.00;65.00;;;;;;5033605;28;20513;-75
2023/12/19 04:19:21;;;;;;;6.37;5.77;;;17.00;65.40;;;;;;5032921;28;20534;-75
2023/12/19 04:21:51;;;;;;;7.53;6.50;;;17.00;65.30;;;;;;5027753;28;20526;-75
2023/12/19 04:24:20;;;;;;;7.43;6.50;;;17.00;65.20;;;;;;5017421;28;20516;-75
2023/12/19 04:26:48;;;;;;;6.00;5.40;;;17.00;65.30;;;;;;5016347;28;20492;-75
2023/12/19 04:29:16;;;;;;;7.17;5.77;;;17.00;65.00;;;;;;5021019;28;20468;-75
2023/12/19 04:31:44;;;;;;;8.00;5.27;;;17.00;65.10;;;;;;5024915;28;20475;-75
2023/12/19 04:34:12;;;;;;;6.50;5.73;;;16.90;65.10;;;;;;5026371;28;20464;-75
2023/12/19 04:36:40;;;;;;;7.80;5.90;;;17.00;65.20;;;;;;5029409;28;20546;-74
2023/12/19 04:39:10;;;;;;;6.63;5.90;;;17.00;65.30;;;;;;5027700;28;20527;-74
2023/12/19 04:41:38;;;;;;;5.57;5.07;;;16.90;64.80;;;;;;5033101;28;20569;-74
2023/12/19 04:44:06;;;;;;;5.73;4.70;;;16.90;65.30;;;;;;5033233;28;20443;-74
2023/12/19 04:46:34;;;;;;;5.07;4.67;;;16.90;65.10;;;;;;5032986;28;20547;-74
2023/12/19 04:49:02;;;;;;;7.27;5.53;;;16.90;65.00;;;;;;5031717;28;20534;-74
2023/12/19 04:51:30;;;;;;;5.60;4.80;;;16.90;64.90;;;;;;5030427;28;20436;-74
2023/12/19 04:53:59;;;;;;;5.43;4.93;;;16.90;65.00;;;;;;5026047;28;20439;-74
2023/12/19 04:56:29;;;;;;;5.93;5.33;;;16.90;65.20;;;;;;5032857;28;20464;-74
2023/12/19 04:58:57;;;;;;;6.37;5.30;;;16.90;65.00;;;;;;5027464;28;20467;-74
2023/12/19 05:01:25;;;;;;;5.83;5.10;;;16.90;65.20;;;;;;5029542;28;20517;-74
2023/12/19 05:03:53;;;;;;;5.57;5.07;;;16.90;64.90;;;;;;5032293;28;20454;-74
2023/12/19 05:06:21;;;;;;;7.20;5.00;;;16.90;65.00;;;;;;5031305;28;20915;-74
2023/12/19 05:08:49;;;;;;;5.37;4.87;;;16.90;65.30;;;;;;5020452;28;20539;-74
2023/12/19 05:11:17;;;;;;;5.73;4.77;;;16.90;65.20;;;;;;5028694;28;20439;-75
2023/12/19 05:13:46;;;;;;;5.53;5.03;;;16.90;65.10;;;;;;5027048;28;20443;-75
2023/12/19 05:16:15;;;;;;;4.87;4.47;;;16.90;65.10;;;;;;5025623;28;20500;-75
2023/12/19 05:18:43;;;;;;;6.13;5.53;;;16.90;65.10;;;;;;5020302;28;20445;-74
2023/12/19 05:21:12;;;;;;;5.30;4.80;;;16.80;65.10;;;;;;5027064;28;20475;-75
2023/12/19 05:23:40;;;;;;;6.03;4.97;;;16.90;65.20;;;;;;5028216;28;20463;-75
2023/12/19 05:26:08;;;;;;;5.63;5.00;;;16.80;65.30;;;;;;5032078;28;21056;-75
2023/12/19 05:28:38;;;;;;;4.83;4.40;;;16.90;65.20;;;;;;5024371;28;20443;-75
2023/12/19 05:31:09;;;;;;;6.73;4.33;;;16.90;65.30;;;;;;5032054;28;20431;-75
2023/12/19 05:33:37;;;;;;;4.40;4.00;;;16.90;65.30;;;;;;5032217;28;20451;-75
2023/12/19 05:36:05;;;;;;;6.57;4.70;;;16.90;65.00;;;;;;5032257;28;20590;-75
2023/12/19 05:38:34;;;;;;;4.80;4.43;;;16.80;65.10;;;;;;5031407;28;20440;-75
2023/12/19 05:41:03;;;;;;;5.60;5.10;;;16.80;65.20;;;;;;5026718;28;20547;-75
2023/12/19 05:43:31;;;;;;;4.87;4.37;;;16.80;65.20;;;;;;5028807;28;20436;-74
2023/12/19 05:46:00;;;;;;;4.50;4.13;;;16.80;65.10;;;;;;5031809;28;20546;-75
2023/12/19 05:48:29;;;;;;;4.90;4.50;;;16.90;65.30;;;;;;5031198;28;20918;-75
2023/12/19 05:50:59;;;;;;;5.00;4.30;;;16.80;65.10;;;;;;5031973;28;20467;-75
2023/12/19 05:53:27;;;;;;;4.70;4.27;;;16.80;65.20;;;;;;5031938;28;20463;-75
2023/12/19 05:55:55;;;;;;;4.10;3.80;;;16.80;65.00;;;;;;5031907;28;20538;-75
2023/12/19 05:58:23;;;;;;;4.47;4.10;;;16.80;65.20;;;;;;5031789;28;20436;-74
2023/12/19 06:00:51;;;;;;;4.30;3.97;;;16.80;65.30;;;;;;5030089;28;20503;-74
2023/12/19 06:03:19;;;;;;;4.70;4.30;;;16.80;65.30;;;;;;5012529;28;20475;-75
2023/12/19 06:05:48;;;;;;;4.83;4.40;;;16.80;65.40;;;;;;5030387;28;20551;-75
2023/12/19 06:08:17;;;;;;;4.50;4.10;;;16.80;65.40;;;;;;5031571;28;20459;-75
2023/12/19 06:10:46;;;;;;;4.93;4.27;;;16.80;65.30;;;;;;5029333;28;20463;-74
2023/12/19 06:13:13;;;;;;;4.27;3.97;;;16.80;65.40;;;;;;5021037;28;20472;-75
2023/12/19 06:15:41;;;;;;;4.47;4.07;;;16.80;65.40;;;;;;5013370;28;20533;-74
2023/12/19 06:18:09;;;;;;;3.90;3.60;;;16.80;65.20;;;;;;5011575;28;20531;-75
2023/12/19 06:20:39;;;;;;;7.07;4.00;;;16.80;65.40;;;;;;5011832;28;20982;-75
2023/12/19 06:23:09;;;;;;;5.23;3.93;;;16.80;65.10;;;;;;5011831;28;20514;-75
2023/12/19 06:25:38;;;;;;;4.10;3.70;;;16.80;65.30;;;;;;5012018;28;20464;-75
2023/12/19 06:28:06;;;;;;;4.33;4.03;;;16.80;65.40;;;;;;5011306;28;20479;-75
2023/12/19 06:30:34;;;;;;;3.90;3.60;;;16.80;65.40;;;;;;5016077;28;20496;-75
2023/12/19 06:33:06;;;;;;;3.70;3.40;;;16.80;65.40;;;;;;5018509;28;20472;-74
2023/12/19 06:35:34;;;;;;;4.37;3.97;;;16.80;65.20;;;;;;5030437;28;20477;-75
2023/12/19 06:38:03;;;;;;;4.40;4.10;;;16.80;65.30;;;;;;5026635;28;20550;-76
2023/12/19 06:40:33;;;;;;;3.93;3.63;;;16.80;65.40;;;;;;5028669;28;20447;-75
2023/12/19 06:43:03;;;;;;;3.67;3.37;;;16.80;65.30;;;;;;5015523;28;20455;-75
2023/12/19 06:45:33;;;;;;;4.33;3.80;;;16.70;65.30;;;;;;5023411;28;20459;-75
2023/12/19 06:48:01;;;;;;;4.00;3.70;;;16.70;65.30;;;;;;5031080;28;20459;-75
2023/12/19 06:50:29;;;;;;;3.90;3.60;;;16.70;65.10;;;;;;5031286;28;20455;-75
2023/12/19 06:52:57;;;;;;;3.30;3.10;;;16.70;65.20;;;;;;5028643;28;20503;-75
2023/12/19 06:55:25;;;;;;;3.97;3.67;;;16.70;65.60;;;;;;5034479;28;20475;-75
2023/12/19 06:57:56;;;;;;;3.20;3.00;;;16.70;65.40;;;;;;5034701;28;21009;-75
2023/12/19 07:00:23;;;;;;;3.73;3.40;;;16.70;65.10;;;;;;5031620;28;20440;-75
2023/12/19 07:02:52;;;;;;;3.37;3.17;;;16.70;65.60;;;;;;5015883;28;20471;-75
2023/12/19 07:05:20;;;;;;;4.20;3.87;;;16.70;65.30;;;;;;5022728;28;21040;-74
2023/12/19 07:07:51;;;;;;;3.60;3.40;;;16.70;65.20;;;;;;5033535;28;20447;-75
2023/12/19 07:10:19;;;;;;;3.70;3.40;;;16.70;65.50;;;;;;5030177;28;20624;-75
2023/12/19 07:12:47;;;;;;;3.67;3.37;;;16.70;65.40;;;;;;5034841;28;20482;-75
2023/12/19 07:15:16;;;;;;;3.20;3.00;;;16.70;65.40;;;;;;5034835;28;20440;-75
2023/12/19 07:17:46;;;;;;;3.50;3.20;;;16.70;65.00;;;;;;5034694;28;20493;-75
2023/12/19 07:20:14;;;;;;;3.50;3.30;;;16.70;65.60;;;;;;5034494;28;20463;-76
2023/12/19 07:22:42;;;;;;;3.67;3.40;;;16.70;65.60;;;;;;5034726;28;20600;-75
2023/12/19 07:25:10;;;;;;;3.60;3.40;;;16.70;65.60;;;;;;5034685;28;20459;-75
2023/12/19 07:27:39;;;;;;;3.70;3.50;;;16.70;65.50;;;;;;5034350;28;20454;-75
2023/12/19 07:30:11;;;;;;;3.40;3.20;;;16.70;65.40;;;;;;5034534;28;20442;-75
2023/12/19 07:32:40;;;;;;;3.47;3.17;;;16.70;65.20;;;;;;5034606;28;20442;-75
2023/12/19 07:35:09;;;;;;;3.47;3.20;;;16.70;65.20;;;;;;5034562;28;20463;-75
2023/12/19 07:37:37;;;;;;;3.73;3.43;;;16.70;65.50;;;;;;5077569;22;20490;-77
2023/12/19 07:40:10;;;;;;;2.87;2.67;;;16.70;65.30;;;;;;5057162;28;20466;-78
2023/12/19 07:42:40;;;;;;;3.60;3.37;;;16.70;65.20;;;;;;5058309;28;20474;-80
2023/12/19 07:45:09;;;;;;;2.77;2.67;;;16.70;65.80;;;;;;5060053;28;20466;-80
2023/12/19 07:47:37;;;;;;;2.70;2.50;;;16.70;65.20;;;;;;5058555;28;20516;-80
2023/12/19 07:50:10;;;;;;;2.80;2.60;;;16.70;65.50;;;;;;5058767;28;20477;-80
2023/12/19 07:52:39;;;;;;;3.10;2.80;;;16.70;65.60;;;;;;5071523;28;20491;-80
2023/12/19 07:55:09;;;;;;;3.20;3.00;;;16.70;65.30;;;;;;5059827;28;20470;-81
2023/12/19 07:57:38;;;;;;;3.80;3.50;;;16.70;65.50;;;;;;5058435;28;20455;-80
2023/12/19 08:00:09;;;;;;;3.30;3.00;;;16.70;65.50;;;;;;5057720;28;20439;-80
2023/12/19 08:02:36;;;;;;;3.00;2.80;;;16.70;65.10;;;;;;5060355;28;20548;-81
2023/12/19 08:05:06;;;;;;;2.80;2.63;;;16.70;65.50;;;;;;5056906;28;20469;-79
2023/12/19 08:07:34;;;;;;;3.10;2.70;;;16.70;65.50;;;;;;5056449;28;20470;-79
2023/12/19 08:10:04;;;;;;;3.23;3.03;;;16.70;65.60;;;;;;5058073;28;20550;-80
2023/12/19 08:12:32;;;;;;;3.00;2.80;;;16.70;65.50;;;;;;5056968;28;20431;-80
2023/12/19 08:15:00;;;;;;;3.23;2.93;;;16.70;65.60;;;;;;5048348;28;20590;-80
2023/12/19 08:17:29;;;;;;;3.40;3.10;;;16.70;65.50;;;;;;5036872;28;20531;-80
2023/12/19 08:19:57;;;;;;;3.37;3.17;;;16.70;65.50;;;;;;5037843;28;20498;-80
2023/12/19 08:22:26;;;;;;;2.87;2.67;;;16.70;65.90;;;;;;5037377;28;20498;-80
2023/12/19 08:24:54;;;;;;;3.20;3.00;;;16.70;65.80;;;;;;5036979;28;20458;-80
2023/12/19 08:27:26;;;;;;;4.13;2.63;;;16.70;65.70;;;;;;5050844;28;20486;-80
2023/12/19 08:29:56;;;;;;;2.83;2.63;;;16.70;65.40;;;;;;5057004;28;20447;-79
2023/12/19 08:32:24;;;;;;;2.60;2.50;;;16.70;65.60;;;;;;5051980;28;20436;-80
2023/12/19 08:34:52;;;;;;;3.87;2.93;;;16.70;65.30;;;;;;5036923;28;20475;-80
2023/12/19 08:37:20;;;;;;;3.07;2.87;;;16.70;65.40;;;;;;5036326;28;20479;-80
2023/12/19 08:39:54;;;;;;;4.10;2.97;;;16.70;65.40;;;;;;5037152;28;20518;-80
2023/12/19 08:42:22;;;;;;;4.23;2.60;;;16.70;65.70;;;;;;5037385;28;20467;-79
2023/12/19 08:44:50;;;;;;;3.27;3.07;;;16.70;65.60;;;;;;5036791;28;20475;-80
2023/12/19 08:47:18;;;;;;;2.77;2.60;;;16.70;65.60;;;;;;5036366;28;20471;-80
2023/12/19 08:49:47;;;;;;;3.27;3.03;;;16.70;65.40;;;;;;5036915;28;20526;-80
2023/12/19 08:52:15;;;;;;;2.77;2.63;;;16.70;65.50;;;;;;5037113;28;20447;-80
2023/12/19 08:54:43;;;;;;;3.00;2.63;;;16.70;65.90;;;;;;5036829;28;20454;-80
2023/12/19 08:57:12;;;;;;;2.77;2.57;;;16.70;65.60;;;;;;5041178;28;20470;-80
2023/12/19 08:59:41;;;;;;;2.63;2.43;;;16.70;65.60;;;;;;5056813;28;20523;-80
2023/12/19 09:02:10;;;;;;;3.10;2.80;;;16.70;65.80;;;;;;5056302;28;20443;-80
2023/12/19 09:04:38;;;;;;;2.87;2.67;;;16.70;65.70;;;;;;5055405;28;20443;-80
2023/12/19 09:07:06;;;;;;;3.00;2.80;;;16.70;65.50;;;;;;5055278;28;20546;-80
2023/12/19 09:09:34;;;;;;;2.60;2.50;;;16.70;65.60;;;;;;5055196;28;20466;-80
2023/12/19 09:12:02;;;;;;;2.57;2.43;;;16.70;65.50;;;;;;5056480;28;20442;-80
2023/12/19 09:14:32;;;;;;;2.60;2.50;;;16.70;65.70;;;;;;5055481;28;20508;-80
2023/12/19 09:17:01;;;;;;;3.07;2.87;;;16.80;65.80;;;;;;5055891;28;20537;-80
2023/12/19 09:19:31;;;;;;;3.63;2.70;;;16.80;65.80;;;;;;5052775;28;20454;-80
2023/12/19 09:21:59;;;;;;;3.10;2.80;;;16.80;65.90;;;;;;5054614;28;20478;-80
2023/12/19 09:24:30;;;;;;;3.30;3.00;;;16.70;65.50;;;;;;5055613;28;20467;-80
2023/12/19 09:26:58;;;;;;;2.63;2.50;;;16.70;65.90;;;;;;5054864;28;20455;-80
2023/12/19 09:29:27;;;;;;;2.60;2.40;;;16.70;65.70;;;;;;5058927;28;20469;-81
2023/12/19 09:31:57;;;;;;;2.40;2.30;;;16.70;65.90;;;;;;5058261;28;20458;-81
2023/12/19 09:34:25;;;;;;;2.70;2.50;;;16.80;66.00;;;;;;5062361;28;20426;-81
2023/12/19 09:36:54;;;;;;;2.67;2.47;;;16.80;65.90;;;;;;5053206;28;20469;-80
2023/12/19 09:39:24;;;;;;;2.70;2.50;;;16.80;65.60;;;;;;5054403;28;20431;-81
2023/12/19 09:41:52;;;;;;;2.57;2.47;;;16.80;66.10;;;;;;5059016;28;20447;-80
2023/12/19 09:44:20;;;;;;;2.53;2.37;;;16.70;65.80;;;;;;5063751;28;20477;-81
2023/12/19 09:46:53;;;;;;;3.10;2.17;;;16.80;65.80;;;;;;5056691;28;20533;-81
2023/12/19 09:49:25;;;;;;;2.20;2.10;;;16.80;65.90;;;;;;5056721;28;20473;-82
2023/12/19 09:51:55;;;;;;;4.20;2.37;;;16.80;65.70;;;;;;5052192;28;20453;-82
2023/12/19 09:54:24;;;;;;;2.13;2.03;;;16.80;65.60;;;;;;5055632;28;20442;-81
2023/12/19 09:56:53;;;;;;;2.27;2.17;;;16.80;65.90;;;;;;5046240;28;20475;-78
2023/12/19 09:59:36;;;;;;;2.57;2.40;;;16.80;65.80;;;;;;5058127;28;20446;-80
2023/12/19 10:03:03;;;;;;;2.47;2.37;;;16.80;66.00;;;;;;5057002;28;20550;-81
2023/12/19 10:05:48;;;;;;;2.53;2.33;;;16.80;66.00;;;;;;5053262;28;20458;-79
2023/12/19 10:09:02;;;;;;;1.90;1.80;;;16.80;66.00;;;;;;5056376;28;20469;-81
2023/12/19 10:11:33;;;;;;;2.50;2.40;;;16.80;65.90;;;;;;5058187;28;20438;-81
2023/12/19 10:14:09;;;;;;;2.40;2.20;;;16.80;65.80;;;;;;5059680;28;20469;-80
2023/12/19 10:16:47;;;;;;;2.60;2.10;;;16.80;66.00;;;;;;5061544;28;20843;-80
2023/12/19 10:19:28;;;;;;;2.13;2.03;;;16.80;65.50;;;;;;5045053;28;20446;-81
2023/12/19 10:22:19;;;;;;;2.80;2.60;;;16.80;65.90;;;;;;5053777;28;20446;-82
2023/12/19 10:24:48;;;;;;;1.83;1.73;;;16.80;66.00;;;;;;5052433;28;20497;-81
2023/12/19 10:27:19;;;;;;;2.27;2.17;;;16.80;65.60;;;;;;5061704;28;20466;-80
2023/12/19 10:29:53;;;;;;;2.50;2.30;;;16.80;65.90;;;;;;5058022;28;20541;-80
2023/12/19 10:32:26;;;;;;;2.60;2.40;;;16.80;65.70;;;;;;5055815;28;20443;-81
2023/12/19 10:34:56;;;;;;;1.87;1.77;;;16.80;66.00;;;;;;5063804;28;20488;-77
2023/12/19 10:37:27;;;;;;;2.50;2.20;;;16.80;65.90;;;;;;5054312;28;20470;-77
2023/12/19 10:40:10;;;;;;;2.20;2.00;;;16.90;66.00;;;;;;5053959;28;20446;-77
2023/12/19 10:42:39;;;;;;;1.73;1.63;;;16.90;65.70;;;;;;5054776;28;20521;-78
2023/12/19 10:45:08;;;;;;;2.73;1.90;;;16.90;66.30;;;;;;5059986;28;20485;-78
2023/12/19 10:47:36;;;;;;;2.13;2.00;;;16.90;66.10;;;;;;5054205;28;20470;-79
2023/12/19 10:50:05;;;;;;;4.53;1.97;;;16.90;65.60;;;;;;5054028;28;20476;-83
2023/12/19 10:52:35;;;;;;;2.30;2.10;;;16.90;66.00;;;;;;5044868;28;20451;-79
2023/12/19 10:55:05;;;;;;;2.10;2.00;;;16.90;65.80;;;;;;5054003;28;20430;-80
2023/12/19 10:57:48;;;;;;;2.10;2.00;;;16.90;66.10;;;;;;5053139;28;20465;-79
2023/12/19 11:00:21;;;;;;;2.17;2.07;;;16.90;65.80;;;;;;5053024;28;20450;-80
2023/12/19 11:02:56;;;;;;;2.30;2.13;;;16.90;65.90;;;;;;5053913;28;20447;-79
2023/12/19 11:05:29;;;;;;;2.60;2.40;;;16.90;65.80;;;;;;5053642;28;20442;-79
2023/12/19 11:08:00;;;;;;;2.40;2.20;;;16.90;66.00;;;;;;5053501;28;20508;-80
2023/12/19 11:10:29;;;;;;;2.07;1.97;;;16.90;66.00;;;;;;5049975;28;20428;-80
2023/12/19 11:12:57;;;;;;;1.70;1.60;;;17.00;66.00;;;;;;5049079;28;20456;-78
2023/12/19 11:15:27;;;;;;;1.90;1.80;;;17.00;66.10;;;;;;5054800;28;20520;-79
2023/12/19 11:17:56;;;;;;;1.90;1.80;;;17.00;65.70;;;;;;5054754;28;20458;-79
2023/12/19 11:20:26;;;;;;;2.07;1.87;;;17.00;66.10;;;;;;5046767;28;20413;-81
2023/12/19 11:23:02;;;;;;;2.00;1.90;;;17.00;65.80;;;;;;5057174;28;20438;-81
2023/12/19 11:25:33;;;;;;;2.00;1.90;;;17.00;66.00;;;;;;5050314;28;20466;-82
2023/12/19 11:28:02;;;;;;;2.70;2.50;;;17.00;66.00;;;;;;5059232;28;20937;-81
2023/12/19 11:30:31;;;;;;;2.00;1.90;;;17.10;66.10;;;;;;5056697;28;20446;-83
2023/12/19 11:33:00;;;;;;;1.90;1.80;;;17.10;66.20;;;;;;5058703;28;20447;-81
2023/12/19 11:35:28;;;;;;;5.80;1.90;;;17.10;66.30;;;;;;5060118;28;20451;-81
2023/12/19 11:38:25;;;;;;;1.80;1.70;;;17.10;66.20;;;;;;5058924;28;20473;-80
2023/12/19 11:40:53;;;;;;;2.20;2.07;;;17.10;66.20;;;;;;5058049;28;20437;-78
2023/12/19 11:43:55;;;;;;;1.90;1.80;;;17.10;66.10;;;;;;5064969;28;20427;-79
2023/12/19 11:46:30;;;;;;;1.60;1.50;;;17.10;66.00;;;;;;5060792;28;20458;-79
2023/12/19 11:48:58;;;;;;;1.93;1.83;;;17.10;66.20;;;;;;5060459;28;20471;-78
2023/12/19 11:51:50;;;;;;;1.80;1.70;;;17.10;66.40;;;;;;5055176;28;20451;-79
2023/12/19 11:54:21;;;;;;;2.90;1.60;;;17.10;66.30;;;;;;5054588;28;20504;-80
2023/12/19 11:57:01;;;;;;;2.00;1.90;;;17.10;66.00;;;;;;5054511;28;20470;-80
2023/12/19 11:59:49;;;;;;;2.00;1.90;;;17.10;66.30;;;;;;5053383;28;20517;-79
2023/12/19 12:02:30;;;;;;;1.93;1.83;;;17.20;66.50;;;;;;5054392;28;20561;-79
2023/12/19 12:05:08;;;;;;;1.80;1.70;;;17.10;66.30;;;;;;5053917;28;20505;-79
2023/12/19 12:07:41;;;;;;;1.80;1.70;;;17.20;67.20;;;;;;5053918;28;20451;-79
2023/12/19 12:10:13;;;;;;;1.83;1.73;;;17.20;66.80;;;;;;5054795;28;20445;-78
2023/12/19 12:12:41;;;;;;;2.33;2.17;;;17.20;66.30;;;;;;5052790;28;20514;-78
2023/12/19 12:15:11;;;;;;;2.57;2.03;;;17.20;66.40;;;;;;5054431;28;20455;-78
2023/12/19 12:17:40;;;;;;;1.73;1.63;;;17.20;66.30;;;;;;5054525;28;20467;-78
2023/12/19 12:20:12;;;;;;;2.00;1.90;;;17.20;66.20;;;;;;5054653;28;20520;-79
2023/12/19 12:22:40;;;;;;;2.20;2.10;;;17.20;66.30;;;;;;5053276;28;20451;-77
2023/12/19 12:25:13;;;;;;;5.40;1.93;;;17.20;66.30;;;;;;5049516;28;20520;-78
2023/12/19 12:27:43;;;;;;;3.20;1.70;;;17.30;66.30;;;;;;5052515;28;20474;-77
2023/12/19 12:30:13;;;;;;;2.03;1.93;;;17.30;66.40;;;;;;5053105;28;20443;-78
2023/12/19 12:32:42;;;;;;;2.00;1.67;;;17.20;66.30;;;;;;5053211;28;20817;-77
2023/12/19 12:35:28;;;;;;;1.70;1.60;;;17.30;66.20;;;;;;5051394;28;20437;-77
2023/12/19 12:37:58;;;;;;;1.97;1.87;;;17.30;66.40;;;;;;5051824;28;20478;-78
2023/12/19 12:40:28;;;;;;;1.70;1.53;;;17.30;66.00;;;;;;5050341;28;20542;-77
2023/12/19 12:43:28;;;;;;;2.10;2.00;;;17.20;66.30;;;;;;5049756;28;20442;-79
2023/12/19 12:46:08;;;;;;;1.67;1.57;;;17.30;66.50;;;;;;5049338;28;20478;-77
2023/12/19 12:48:38;;;;;;;2.33;1.90;;;17.30;66.30;;;;;;5049620;28;20458;-78
2023/12/19 12:51:06;;;;;;;1.90;1.80;;;17.20;66.20;;;;;;5050444;28;20431;-78
2023/12/19 12:53:34;;;;;;;1.83;1.73;;;17.30;66.50;;;;;;5048795;28;20451;-77
2023/12/19 12:56:08;;;;;;;1.43;1.43;;;17.30;66.50;;;;;;5050529;28;20481;-78
2023/12/19 12:58:36;;;;;;;2.13;2.03;;;17.30;66.30;;;;;;5047291;28;20496;-77